sensor_id;sensor_type;location;lat;lon;timestamp;temperature;humidity
13610;DHT22;6876;50.788;4.940;2022-09-20T00:01:17;12.60;99.90
13610;DHT22;6876;50.788;4.940;2022-09-20T00:04:05;12.50;99.90
13610;DHT22;6876;50.788;4.940;2022-09-20T00:06:53;12.60;99.90
13610;DHT22;6876;50.788;4.940;2022-09-20T00:09:41;12.50;99.90
13610;DHT22;6876;50.788;4.940;2022-09-20T00:12:28;12.50;99.90
13610;DHT22;6876;50.788;4.940;2022-09-20T00:15:16;12.60;99.90
13610;DHT22;6876;50.788;4.940;2022-09-20T00:18:03;12.60;99.90
13610;DHT22;6876;50.788;4.940;2022-09-20T00:20:51;12.50;99.90
13610;DHT22;6876;50.788;4.940;2022-09-20T00:23:38;12.60;99.90
13610;DHT22;6876;50.788;4.940;2022-09-20T00:26:27;12.60;99.90
13610;DHT22;6876;50.788;4.940;2022-09-20T00:29:15;12.60;99.90
13610;DHT22;6876;50.788;4.940;2022-09-20T00:32:02;12.50;99.90
13610;DHT22;6876;50.788;4.940;2022-09-20T00:34:49;12.50;99.90
13610;DHT22;6876;50.788;4.940;2022-09-20T00:37:56;12.40;99.90
13610;DHT22;6876;50.788;4.940;2022-09-20T00:40:43;12.20;99.90
13610;DHT22;6876;50.788;4.940;2022-09-20T00:43:37;12.20;99.90
13610;DHT22;6876;50.788;4.940;2022-09-20T00:46:28;12.10;99.90
13610;DHT22;6876;50.788;4.940;2022-09-20T00:49:20;12.10;99.90
13610;DHT22;6876;50.788;4.940;2022-09-20T00:52:08;12.00;99.90
13610;DHT22;6876;50.788;4.940;2022-09-20T00:54:56;12.00;99.90
13610;DHT22;6876;50.788;4.940;2022-09-20T00:57:44;12.00;99.90
13610;DHT22;6876;50.788;4.940;2022-09-20T01:00:34;11.90;99.90
13610;DHT22;6876;50.788;4.940;2022-09-20T01:03:24;11.90;99.90
13610;DHT22;6876;50.788;4.940;2022-09-20T01:06:14;11.90;99.90
13610;DHT22;6876;50.788;4.940;2022-09-20T01:09:04;11.80;99.90
13610;DHT22;6876;50.788;4.940;2022-09-20T01:11:53;11.80;99.90
13610;DHT22;6876;50.788;4.940;2022-09-20T01:14:43;11.70;99.90
13610;DHT22;6876;50.788;4.940;2022-09-20T01:17:35;11.60;99.90
13610;DHT22;6876;50.788;4.940;2022-09-20T01:20:26;11.50;99.90
13610;DHT22;6876;50.788;4.940;2022-09-20T01:23:30;11.50;99.90
13610;DHT22;6876;50.788;4.940;2022-09-20T01:29:58;11.30;99.90
13610;DHT22;6876;50.788;4.940;2022-09-20T01:32:59;11.20;99.90
13610;DHT22;6876;50.788;4.940;2022-09-20T01:35:49;11.10;99.90
13610;DHT22;6876;50.788;4.940;2022-09-20T01:38:43;11.20;99.90
13610;DHT22;6876;50.788;4.940;2022-09-20T01:41:36;11.20;99.90
13610;DHT22;6876;50.788;4.940;2022-09-20T01:44:33;11.20;99.90
13610;DHT22;6876;50.788;4.940;2022-09-20T01:47:30;11.20;99.90
13610;DHT22;6876;50.788;4.940;2022-09-20T01:50:24;11.30;99.90
13610;DHT22;6876;50.788;4.940;2022-09-20T01:57:16;11.40;99.90
13610;DHT22;6876;50.788;4.940;2022-09-20T02:00:11;11.30;99.90
13610;DHT22;6876;50.788;4.940;2022-09-20T02:03:42;11.30;99.90
13610;DHT22;6876;50.788;4.940;2022-09-20T02:06:49;11.30;99.90
13610;DHT22;6876;50.788;4.940;2022-09-20T02:09:57;11.40;99.90
13610;DHT22;6876;50.788;4.940;2022-09-20T02:12:52;11.50;99.90
13610;DHT22;6876;50.788;4.940;2022-09-20T02:15:58;11.50;99.90
13610;DHT22;6876;50.788;4.940;2022-09-20T02:19:14;11.50;99.90
13610;DHT22;6876;50.788;4.940;2022-09-20T02:22:14;11.50;99.90
13610;DHT22;6876;50.788;4.940;2022-09-20T02:25:19;11.50;99.90
13610;DHT22;6876;50.788;4.940;2022-09-20T02:28:20;11.60;99.90
13610;DHT22;6876;50.788;4.940;2022-09-20T02:31:14;11.60;99.90
13610;DHT22;6876;50.788;4.940;2022-09-20T02:34:30;11.60;99.90
13610;DHT22;6876;50.788;4.940;2022-09-20T02:37:53;11.60;99.90
13610;DHT22;6876;50.788;4.940;2022-09-20T02:41:04;11.60;99.90
13610;DHT22;6876;50.788;4.940;2022-09-20T02:44:02;11.60;99.90
13610;DHT22;6876;50.788;4.940;2022-09-20T02:46:59;11.60;99.90
13610;DHT22;6876;50.788;4.940;2022-09-20T02:49:57;11.60;99.90
13610;DHT22;6876;50.788;4.940;2022-09-20T02:52:56;11.60;99.90
13610;DHT22;6876;50.788;4.940;2022-09-20T02:55:52;11.50;99.90
13610;DHT22;6876;50.788;4.940;2022-09-20T02:58:51;11.50;99.90
13610;DHT22;6876;50.788;4.940;2022-09-20T03:01:46;11.50;99.90
13610;DHT22;6876;50.788;4.940;2022-09-20T03:04:47;11.60;99.90
13610;DHT22;6876;50.788;4.940;2022-09-20T03:07:55;11.50;99.90
13610;DHT22;6876;50.788;4.940;2022-09-20T03:10:53;11.60;99.90
13610;DHT22;6876;50.788;4.940;2022-09-20T03:13:53;11.60;99.90
13610;DHT22;6876;50.788;4.940;2022-09-20T03:20:07;11.50;99.90
13610;DHT22;6876;50.788;4.940;2022-09-20T03:23:04;11.50;99.90
13610;DHT22;6876;50.788;4.940;2022-09-20T03:25:59;11.50;99.90
13610;DHT22;6876;50.788;4.940;2022-09-20T03:28:54;11.50;99.90
13610;DHT22;6876;50.788;4.940;2022-09-20T03:32:00;11.50;99.90
13610;DHT22;6876;50.788;4.940;2022-09-20T03:34:58;11.50;99.90
13610;DHT22;6876;50.788;4.940;2022-09-20T03:38:02;11.50;99.90
13610;DHT22;6876;50.788;4.940;2022-09-20T03:41:05;11.50;99.90
13610;DHT22;6876;50.788;4.940;2022-09-20T03:44:09;11.50;99.90
13610;DHT22;6876;50.788;4.940;2022-09-20T03:47:11;11.50;99.90
13610;DHT22;6876;50.788;4.940;2022-09-20T03:50:22;11.50;99.90
13610;DHT22;6876;50.788;4.940;2022-09-20T04:03:20;11.40;99.90
13610;DHT22;6876;50.788;4.940;2022-09-20T04:06:32;11.50;99.90
13610;DHT22;6876;50.788;4.940;2022-09-20T04:09:55;11.50;99.90
13610;DHT22;6876;50.788;4.940;2022-09-20T04:12:56;11.40;99.90
13610;DHT22;6876;50.788;4.940;2022-09-20T04:15:55;11.40;99.90
13610;DHT22;6876;50.788;4.940;2022-09-20T04:18:48;11.40;99.90
13610;DHT22;6876;50.788;4.940;2022-09-20T04:21:42;11.50;99.90
13610;DHT22;6876;50.788;4.940;2022-09-20T04:24:39;11.50;99.90
13610;DHT22;6876;50.788;4.940;2022-09-20T04:27:30;11.50;99.90
13610;DHT22;6876;50.788;4.940;2022-09-20T04:30:24;11.50;99.90
13610;DHT22;6876;50.788;4.940;2022-09-20T04:33:20;11.50;99.90
13610;DHT22;6876;50.788;4.940;2022-09-20T04:36:16;11.50;99.90
13610;DHT22;6876;50.788;4.940;2022-09-20T04:39:34;11.50;99.90
13610;DHT22;6876;50.788;4.940;2022-09-20T04:42:54;11.40;99.90
13610;DHT22;6876;50.788;4.940;2022-09-20T04:46:18;11.50;99.90
13610;DHT22;6876;50.788;4.940;2022-09-20T04:56:13;11.30;99.90
13610;DHT22;6876;50.788;4.940;2022-09-20T04:59:07;11.30;99.90
13610;DHT22;6876;50.788;4.940;2022-09-20T05:02:13;11.30;99.90
13610;DHT22;6876;50.788;4.940;2022-09-20T05:05:32;11.30;99.90
13610;DHT22;6876;50.788;4.940;2022-09-20T05:09:05;11.30;99.90
13610;DHT22;6876;50.788;4.940;2022-09-20T05:12:17;11.40;99.90
13610;DHT22;6876;50.788;4.940;2022-09-20T05:15:40;11.40;99.90
13610;DHT22;6876;50.788;4.940;2022-09-20T05:18:59;11.40;99.90
13610;DHT22;6876;50.788;4.940;2022-09-20T05:21:59;11.40;99.90
13610;DHT22;6876;50.788;4.940;2022-09-20T05:25:08;11.40;99.90
13610;DHT22;6876;50.788;4.940;2022-09-20T05:28:07;11.40;99.90
13610;DHT22;6876;50.788;4.940;2022-09-20T05:31:00;11.40;99.90
13610;DHT22;6876;50.788;4.940;2022-09-20T05:33:53;11.40;99.90
13610;DHT22;6876;50.788;4.940;2022-09-20T05:36:50;11.40;99.90
13610;DHT22;6876;50.788;4.940;2022-09-20T05:39:48;11.50;99.90
13610;DHT22;6876;50.788;4.940;2022-09-20T05:42:43;11.60;99.90
13610;DHT22;6876;50.788;4.940;2022-09-20T05:45:46;11.60;99.90
13610;DHT22;6876;50.788;4.940;2022-09-20T05:48:43;11.60;99.90
13610;DHT22;6876;50.788;4.940;2022-09-20T05:51:52;11.70;99.90
13610;DHT22;6876;50.788;4.940;2022-09-20T05:55:12;11.70;99.90
13610;DHT22;6876;50.788;4.940;2022-09-20T05:58:15;11.80;99.90
13610;DHT22;6876;50.788;4.940;2022-09-20T06:01:12;11.80;99.90
13610;DHT22;6876;50.788;4.940;2022-09-20T06:04:11;11.70;99.90
13610;DHT22;6876;50.788;4.940;2022-09-20T06:07:06;11.70;99.90
13610;DHT22;6876;50.788;4.940;2022-09-20T06:13:31;11.70;99.90
13610;DHT22;6876;50.788;4.940;2022-09-20T06:16:26;11.70;99.90
13610;DHT22;6876;50.788;4.940;2022-09-20T06:19:25;11.70;99.90
13610;DHT22;6876;50.788;4.940;2022-09-20T06:22:18;11.70;99.90
13610;DHT22;6876;50.788;4.940;2022-09-20T06:25:15;11.70;99.90
13610;DHT22;6876;50.788;4.940;2022-09-20T06:28:07;11.80;99.90
13610;DHT22;6876;50.788;4.940;2022-09-20T06:30:58;12.10;99.90
13610;DHT22;6876;50.788;4.940;2022-09-20T06:33:52;12.40;99.90
13610;DHT22;6876;50.788;4.940;2022-09-20T06:36:45;12.60;99.90
13610;DHT22;6876;50.788;4.940;2022-09-20T06:39:57;12.90;99.90
13610;DHT22;6876;50.788;4.940;2022-09-20T06:43:05;13.50;99.90
13610;DHT22;6876;50.788;4.940;2022-09-20T06:45:52;13.50;99.90
13610;DHT22;6876;50.788;4.940;2022-09-20T06:48:39;13.30;99.90
13610;DHT22;6876;50.788;4.940;2022-09-20T06:51:28;13.30;99.90
13610;DHT22;6876;50.788;4.940;2022-09-20T06:54:21;14.00;99.90
13610;DHT22;6876;50.788;4.940;2022-09-20T06:57:09;14.20;99.90
13610;DHT22;6876;50.788;4.940;2022-09-20T06:59:57;14.40;99.90
13610;DHT22;6876;50.788;4.940;2022-09-20T07:02:44;14.20;99.90
13610;DHT22;6876;50.788;4.940;2022-09-20T07:05:32;13.90;99.90
13610;DHT22;6876;50.788;4.940;2022-09-20T07:08:19;13.80;99.90
13610;DHT22;6876;50.788;4.940;2022-09-20T07:11:11;15.60;99.90
13610;DHT22;6876;50.788;4.940;2022-09-20T07:14:01;15.90;99.90
13610;DHT22;6876;50.788;4.940;2022-09-20T07:16:49;17.30;99.90
13610;DHT22;6876;50.788;4.940;2022-09-20T07:19:36;18.50;99.90
13610;DHT22;6876;50.788;4.940;2022-09-20T07:22:23;19.50;99.90
13610;DHT22;6876;50.788;4.940;2022-09-20T07:25:11;20.50;99.90
13610;DHT22;6876;50.788;4.940;2022-09-20T07:27:59;21.10;99.90
13610;DHT22;6876;50.788;4.940;2022-09-20T07:30:47;19.40;99.90
13610;DHT22;6876;50.788;4.940;2022-09-20T07:33:34;17.80;99.90
13610;DHT22;6876;50.788;4.940;2022-09-20T07:36:22;16.50;99.90
13610;DHT22;6876;50.788;4.940;2022-09-20T07:39:09;16.20;99.90
13610;DHT22;6876;50.788;4.940;2022-09-20T07:41:56;16.00;99.90
13610;DHT22;6876;50.788;4.940;2022-09-20T07:44:45;15.60;99.90
13610;DHT22;6876;50.788;4.940;2022-09-20T07:47:32;15.20;99.90
13610;DHT22;6876;50.788;4.940;2022-09-20T07:50:20;15.10;99.90
13610;DHT22;6876;50.788;4.940;2022-09-20T07:53:07;14.80;99.90
13610;DHT22;6876;50.788;4.940;2022-09-20T07:55:56;14.70;99.90
13610;DHT22;6876;50.788;4.940;2022-09-20T07:58:43;14.60;99.90
13610;DHT22;6876;50.788;4.940;2022-09-20T08:01:33;14.50;99.90
13610;DHT22;6876;50.788;4.940;2022-09-20T08:04:21;14.50;99.90
13610;DHT22;6876;50.788;4.940;2022-09-20T08:07:08;14.50;99.90
13610;DHT22;6876;50.788;4.940;2022-09-20T08:09:55;14.50;99.90
13610;DHT22;6876;50.788;4.940;2022-09-20T08:12:43;14.40;99.90
13610;DHT22;6876;50.788;4.940;2022-09-20T08:15:30;14.40;99.90
13610;DHT22;6876;50.788;4.940;2022-09-20T08:18:18;14.30;99.90
13610;DHT22;6876;50.788;4.940;2022-09-20T08:21:08;14.30;99.90
13610;DHT22;6876;50.788;4.940;2022-09-20T08:23:56;14.30;99.90
13610;DHT22;6876;50.788;4.940;2022-09-20T08:26:44;14.30;99.90
13610;DHT22;6876;50.788;4.940;2022-09-20T08:29:31;14.40;99.90
13610;DHT22;6876;50.788;4.940;2022-09-20T08:32:18;14.50;99.90
13610;DHT22;6876;50.788;4.940;2022-09-20T08:35:07;14.50;99.90
13610;DHT22;6876;50.788;4.940;2022-09-20T08:37:56;14.50;99.90
13610;DHT22;6876;50.788;4.940;2022-09-20T08:40:44;14.60;99.90
13610;DHT22;6876;50.788;4.940;2022-09-20T08:43:36;14.60;99.90
13610;DHT22;6876;50.788;4.940;2022-09-20T08:46:27;14.40;99.90
13610;DHT22;6876;50.788;4.940;2022-09-20T08:49:22;14.50;99.90
13610;DHT22;6876;50.788;4.940;2022-09-20T08:52:17;14.70;99.90
13610;DHT22;6876;50.788;4.940;2022-09-20T08:55:12;14.80;99.90
13610;DHT22;6876;50.788;4.940;2022-09-20T08:58:01;14.80;99.90
13610;DHT22;6876;50.788;4.940;2022-09-20T09:00:48;14.80;99.90
13610;DHT22;6876;50.788;4.940;2022-09-20T09:03:35;14.80;99.90
13610;DHT22;6876;50.788;4.940;2022-09-20T09:06:23;14.90;99.90
13610;DHT22;6876;50.788;4.940;2022-09-20T09:09:17;14.90;99.90
13610;DHT22;6876;50.788;4.940;2022-09-20T09:12:04;14.90;99.90
13610;DHT22;6876;50.788;4.940;2022-09-20T09:14:56;15.00;99.90
13610;DHT22;6876;50.788;4.940;2022-09-20T09:17:44;15.10;99.90
13610;DHT22;6876;50.788;4.940;2022-09-20T09:20:40;15.10;99.90
13610;DHT22;6876;50.788;4.940;2022-09-20T09:23:39;15.10;99.90
13610;DHT22;6876;50.788;4.940;2022-09-20T09:26:35;15.40;99.90
13610;DHT22;6876;50.788;4.940;2022-09-20T09:29:23;15.60;99.90
13610;DHT22;6876;50.788;4.940;2022-09-20T09:32:19;15.60;99.90
13610;DHT22;6876;50.788;4.940;2022-09-20T09:35:23;15.80;99.90
13610;DHT22;6876;50.788;4.940;2022-09-20T09:38:17;16.20;99.90
13610;DHT22;6876;50.788;4.940;2022-09-20T09:41:20;16.50;99.90
13610;DHT22;6876;50.788;4.940;2022-09-20T09:44:19;16.60;99.90
13610;DHT22;6876;50.788;4.940;2022-09-20T09:47:22;16.80;99.90
13610;DHT22;6876;50.788;4.940;2022-09-20T09:50:21;17.50;99.90
13610;DHT22;6876;50.788;4.940;2022-09-20T09:53:12;17.80;99.90
13610;DHT22;6876;50.788;4.940;2022-09-20T09:56:15;17.90;99.90
13610;DHT22;6876;50.788;4.940;2022-09-20T09:59:28;17.80;99.90
13610;DHT22;6876;50.788;4.940;2022-09-20T10:02:29;17.60;99.90
13610;DHT22;6876;50.788;4.940;2022-09-20T10:05:22;17.60;99.90
13610;DHT22;6876;50.788;4.940;2022-09-20T10:08:17;17.90;99.90
13610;DHT22;6876;50.788;4.940;2022-09-20T10:11:14;18.00;99.90
13610;DHT22;6876;50.788;4.940;2022-09-20T10:14:18;18.40;99.90
13610;DHT22;6876;50.788;4.940;2022-09-20T10:17:24;18.10;99.90
13610;DHT22;6876;50.788;4.940;2022-09-20T10:20:33;18.00;99.90
13610;DHT22;6876;50.788;4.940;2022-09-20T10:23:38;17.80;99.90
13610;DHT22;6876;50.788;4.940;2022-09-20T10:26:38;17.60;99.90
13610;DHT22;6876;50.788;4.940;2022-09-20T10:29:39;17.80;99.90
13610;DHT22;6876;50.788;4.940;2022-09-20T10:32:43;18.10;99.90
13610;DHT22;6876;50.788;4.940;2022-09-20T10:35:47;18.60;99.90
13610;DHT22;6876;50.788;4.940;2022-09-20T10:38:40;19.20;99.90
13610;DHT22;6876;50.788;4.940;2022-09-20T10:41:43;20.00;99.90
13610;DHT22;6876;50.788;4.940;2022-09-20T10:45:02;20.20;99.90
13610;DHT22;6876;50.788;4.940;2022-09-20T10:48:02;20.60;99.90
13610;DHT22;6876;50.788;4.940;2022-09-20T10:50:58;20.50;99.90
13610;DHT22;6876;50.788;4.940;2022-09-20T10:53:51;20.20;99.90
13610;DHT22;6876;50.788;4.940;2022-09-20T10:56:44;19.90;99.90
13610;DHT22;6876;50.788;4.940;2022-09-20T10:59:40;20.00;99.90
13610;DHT22;6876;50.788;4.940;2022-09-20T11:02:44;20.20;99.90
13610;DHT22;6876;50.788;4.940;2022-09-20T11:05:42;20.80;99.90
13610;DHT22;6876;50.788;4.940;2022-09-20T11:08:35;20.50;99.90
13610;DHT22;6876;50.788;4.940;2022-09-20T11:11:25;19.90;99.90
13610;DHT22;6876;50.788;4.940;2022-09-20T11:14:17;19.70;99.90
13610;DHT22;6876;50.788;4.940;2022-09-20T11:17:10;19.70;99.90
13610;DHT22;6876;50.788;4.940;2022-09-20T11:20:02;19.70;99.90
13610;DHT22;6876;50.788;4.940;2022-09-20T11:22:57;19.60;99.90
13610;DHT22;6876;50.788;4.940;2022-09-20T11:25:49;19.80;99.90
13610;DHT22;6876;50.788;4.940;2022-09-20T11:28:40;19.70;99.90
13610;DHT22;6876;50.788;4.940;2022-09-20T11:31:31;20.00;99.90
13610;DHT22;6876;50.788;4.940;2022-09-20T11:34:24;20.20;99.90
13610;DHT22;6876;50.788;4.940;2022-09-20T11:37:14;20.00;99.90
13610;DHT22;6876;50.788;4.940;2022-09-20T11:40:11;20.00;99.90
13610;DHT22;6876;50.788;4.940;2022-09-20T11:43:03;20.40;99.90
13610;DHT22;6876;50.788;4.940;2022-09-20T11:45:55;20.40;99.90
13610;DHT22;6876;50.788;4.940;2022-09-20T11:48:47;20.50;99.90
13610;DHT22;6876;50.788;4.940;2022-09-20T11:55:31;20.10;99.90
13610;DHT22;6876;50.788;4.940;2022-09-20T11:58:19;20.00;99.90
13610;DHT22;6876;50.788;4.940;2022-09-20T12:01:11;19.90;99.90
13610;DHT22;6876;50.788;4.940;2022-09-20T12:04:01;20.10;99.90
13610;DHT22;6876;50.788;4.940;2022-09-20T12:06:58;20.30;99.90
13610;DHT22;6876;50.788;4.940;2022-09-20T12:09:52;20.20;99.90
13610;DHT22;6876;50.788;4.940;2022-09-20T12:12:43;20.10;99.90
13610;DHT22;6876;50.788;4.940;2022-09-20T12:15:34;20.20;99.90
13610;DHT22;6876;50.788;4.940;2022-09-20T12:25:35;20.80;99.90
13610;DHT22;6876;50.788;4.940;2022-09-20T12:28:32;20.30;99.90
13610;DHT22;6876;50.788;4.940;2022-09-20T12:31:38;20.20;99.90
13610;DHT22;6876;50.788;4.940;2022-09-20T12:34:35;20.00;99.90
13610;DHT22;6876;50.788;4.940;2022-09-20T12:37:23;20.10;99.90
13610;DHT22;6876;50.788;4.940;2022-09-20T12:40:14;20.10;99.90
13610;DHT22;6876;50.788;4.940;2022-09-20T12:43:04;20.20;99.90
13610;DHT22;6876;50.788;4.940;2022-09-20T12:45:52;20.20;99.90
13610;DHT22;6876;50.788;4.940;2022-09-20T12:48:40;20.10;99.90
13610;DHT22;6876;50.788;4.940;2022-09-20T12:51:31;19.80;99.90
13610;DHT22;6876;50.788;4.940;2022-09-20T12:54:49;19.50;99.90
13610;DHT22;6876;50.788;4.940;2022-09-20T12:57:37;19.20;99.90
13610;DHT22;6876;50.788;4.940;2022-09-20T13:00:31;19.10;99.90
13610;DHT22;6876;50.788;4.940;2022-09-20T13:03:26;18.90;99.90
13610;DHT22;6876;50.788;4.940;2022-09-20T13:06:24;18.80;99.90
13610;DHT22;6876;50.788;4.940;2022-09-20T13:09:12;18.80;99.90
13610;DHT22;6876;50.788;4.940;2022-09-20T13:12:00;18.60;99.90
13610;DHT22;6876;50.788;4.940;2022-09-20T13:14:48;18.70;99.90
13610;DHT22;6876;50.788;4.940;2022-09-20T13:17:40;18.80;99.90
13610;DHT22;6876;50.788;4.940;2022-09-20T13:20:30;18.90;99.90
13610;DHT22;6876;50.788;4.940;2022-09-20T13:23:23;18.90;99.90
13610;DHT22;6876;50.788;4.940;2022-09-20T13:26:13;19.30;99.90
13610;DHT22;6876;50.788;4.940;2022-09-20T13:29:02;19.70;99.90
13610;DHT22;6876;50.788;4.940;2022-09-20T13:31:50;20.00;99.90
13610;DHT22;6876;50.788;4.940;2022-09-20T13:34:38;19.90;99.90
13610;DHT22;6876;50.788;4.940;2022-09-20T13:37:25;20.00;99.90
13610;DHT22;6876;50.788;4.940;2022-09-20T13:40:16;19.80;99.90
13610;DHT22;6876;50.788;4.940;2022-09-20T13:43:06;19.70;99.90
13610;DHT22;6876;50.788;4.940;2022-09-20T13:46:07;19.60;99.90
13610;DHT22;6876;50.788;4.940;2022-09-20T13:49:08;19.60;99.90
13610;DHT22;6876;50.788;4.940;2022-09-20T13:51:57;19.50;99.90
13610;DHT22;6876;50.788;4.940;2022-09-20T13:54:44;19.10;99.90
13610;DHT22;6876;50.788;4.940;2022-09-20T13:57:32;18.80;99.90
13610;DHT22;6876;50.788;4.940;2022-09-20T14:00:19;18.50;99.90
13610;DHT22;6876;50.788;4.940;2022-09-20T14:03:11;18.30;99.90
13610;DHT22;6876;50.788;4.940;2022-09-20T14:06:03;18.20;99.90
13610;DHT22;6876;50.788;4.940;2022-09-20T14:08:53;17.90;99.90
13610;DHT22;6876;50.788;4.940;2022-09-20T14:11:41;17.60;99.90
13610;DHT22;6876;50.788;4.940;2022-09-20T14:14:28;17.40;99.90
13610;DHT22;6876;50.788;4.940;2022-09-20T14:17:19;17.40;99.90
13610;DHT22;6876;50.788;4.940;2022-09-20T14:20:13;17.20;99.90
13610;DHT22;6876;50.788;4.940;2022-09-20T14:23:01;17.00;99.90
13610;DHT22;6876;50.788;4.940;2022-09-20T14:26:07;16.80;99.90
13610;DHT22;6876;50.788;4.940;2022-09-20T14:28:55;16.80;99.90
13610;DHT22;6876;50.788;4.940;2022-09-20T14:31:44;16.80;99.90
13610;DHT22;6876;50.788;4.940;2022-09-20T14:34:35;16.80;99.90
13610;DHT22;6876;50.788;4.940;2022-09-20T14:37:24;16.90;99.90
13610;DHT22;6876;50.788;4.940;2022-09-20T14:40:24;16.90;99.90
13610;DHT22;6876;50.788;4.940;2022-09-20T14:43:24;17.00;99.90
13610;DHT22;6876;50.788;4.940;2022-09-20T14:46:15;17.00;99.90
13610;DHT22;6876;50.788;4.940;2022-09-20T14:49:19;16.90;99.90
13610;DHT22;6876;50.788;4.940;2022-09-20T14:52:35;17.10;99.90
13610;DHT22;6876;50.788;4.940;2022-09-20T14:55:23;17.20;99.90
13610;DHT22;6876;50.788;4.940;2022-09-20T14:58:13;17.30;99.90
13610;DHT22;6876;50.788;4.940;2022-09-20T15:01:05;17.20;99.90
13610;DHT22;6876;50.788;4.940;2022-09-20T15:04:06;17.30;99.90
13610;DHT22;6876;50.788;4.940;2022-09-20T15:06:55;17.10;99.90
13610;DHT22;6876;50.788;4.940;2022-09-20T15:09:42;17.10;99.90
13610;DHT22;6876;50.788;4.940;2022-09-20T15:12:30;17.10;99.90
13610;DHT22;6876;50.788;4.940;2022-09-20T15:15:17;16.90;99.90
13610;DHT22;6876;50.788;4.940;2022-09-20T15:18:15;16.90;99.90
13610;DHT22;6876;50.788;4.940;2022-09-20T15:21:04;16.80;99.90
13610;DHT22;6876;50.788;4.940;2022-09-20T15:23:51;16.70;99.90
13610;DHT22;6876;50.788;4.940;2022-09-20T15:26:39;16.70;99.90
13610;DHT22;6876;50.788;4.940;2022-09-20T15:29:26;16.60;99.90
13610;DHT22;6876;50.788;4.940;2022-09-20T15:32:13;16.60;99.90
13610;DHT22;6876;50.788;4.940;2022-09-20T15:35:02;16.40;99.90
13610;DHT22;6876;50.788;4.940;2022-09-20T15:37:49;16.40;99.90
13610;DHT22;6876;50.788;4.940;2022-09-20T15:40:38;16.40;99.90
13610;DHT22;6876;50.788;4.940;2022-09-20T15:43:25;16.20;99.90
13610;DHT22;6876;50.788;4.940;2022-09-20T15:46:17;16.10;99.90
13610;DHT22;6876;50.788;4.940;2022-09-20T15:49:05;16.10;99.90
13610;DHT22;6876;50.788;4.940;2022-09-20T15:51:54;16.00;99.90
13610;DHT22;6876;50.788;4.940;2022-09-20T15:54:42;16.00;99.90
13610;DHT22;6876;50.788;4.940;2022-09-20T15:57:29;16.00;99.90
13610;DHT22;6876;50.788;4.940;2022-09-20T16:00:17;16.00;99.90
13610;DHT22;6876;50.788;4.940;2022-09-20T16:03:04;15.90;99.90
13610;DHT22;6876;50.788;4.940;2022-09-20T16:05:57;16.00;99.90
13610;DHT22;6876;50.788;4.940;2022-09-20T16:08:47;15.90;99.90
13610;DHT22;6876;50.788;4.940;2022-09-20T16:11:35;15.90;99.90
13610;DHT22;6876;50.788;4.940;2022-09-20T16:14:22;15.90;99.90
13610;DHT22;6876;50.788;4.940;2022-09-20T16:17:10;15.90;99.90
13610;DHT22;6876;50.788;4.940;2022-09-20T16:19:57;15.90;99.90
13610;DHT22;6876;50.788;4.940;2022-09-20T16:22:44;15.90;99.90
13610;DHT22;6876;50.788;4.940;2022-09-20T16:25:35;15.90;99.90
13610;DHT22;6876;50.788;4.940;2022-09-20T16:28:22;15.90;99.90
13610;DHT22;6876;50.788;4.940;2022-09-20T16:31:28;15.80;99.90
13610;DHT22;6876;50.788;4.940;2022-09-20T16:34:17;15.80;99.90
13610;DHT22;6876;50.788;4.940;2022-09-20T16:37:08;15.80;99.90
13610;DHT22;6876;50.788;4.940;2022-09-20T16:39:56;15.90;99.90
13610;DHT22;6876;50.788;4.940;2022-09-20T16:42:45;15.90;99.90
13610;DHT22;6876;50.788;4.940;2022-09-20T16:45:32;15.80;99.90
13610;DHT22;6876;50.788;4.940;2022-09-20T16:48:19;15.80;99.90
13610;DHT22;6876;50.788;4.940;2022-09-20T16:51:07;15.70;99.90
13610;DHT22;6876;50.788;4.940;2022-09-20T16:53:54;15.60;99.90
13610;DHT22;6876;50.788;4.940;2022-09-20T16:56:43;15.60;99.90
13610;DHT22;6876;50.788;4.940;2022-09-20T16:59:32;15.50;99.90
13610;DHT22;6876;50.788;4.940;2022-09-20T17:02:20;15.50;99.90
13610;DHT22;6876;50.788;4.940;2022-09-20T17:05:07;15.40;99.90
13610;DHT22;6876;50.788;4.940;2022-09-20T17:07:55;15.30;99.90
13610;DHT22;6876;50.788;4.940;2022-09-20T17:10:42;15.40;99.90
13610;DHT22;6876;50.788;4.940;2022-09-20T17:13:30;15.20;99.90
13610;DHT22;6876;50.788;4.940;2022-09-20T17:16:20;15.10;99.90
13610;DHT22;6876;50.788;4.940;2022-09-20T17:19:09;15.10;99.90
13610;DHT22;6876;50.788;4.940;2022-09-20T17:21:57;15.10;99.90
13610;DHT22;6876;50.788;4.940;2022-09-20T17:24:49;15.10;99.90
13610;DHT22;6876;50.788;4.940;2022-09-20T17:27:37;15.00;99.90
13610;DHT22;6876;50.788;4.940;2022-09-20T17:30:25;14.90;99.90
13610;DHT22;6876;50.788;4.940;2022-09-20T17:33:16;14.90;99.90
13610;DHT22;6876;50.788;4.940;2022-09-20T17:36:05;14.80;99.90
13610;DHT22;6876;50.788;4.940;2022-09-20T17:38:56;14.70;99.90
13610;DHT22;6876;50.788;4.940;2022-09-20T17:41:48;14.70;99.90
13610;DHT22;6876;50.788;4.940;2022-09-20T17:44:36;14.60;99.90
13610;DHT22;6876;50.788;4.940;2022-09-20T17:47:26;14.50;99.90
13610;DHT22;6876;50.788;4.940;2022-09-20T17:50:17;14.30;99.90
13610;DHT22;6876;50.788;4.940;2022-09-20T17:53:08;14.20;99.90
13610;DHT22;6876;50.788;4.940;2022-09-20T17:55:57;14.00;99.90
13610;DHT22;6876;50.788;4.940;2022-09-20T17:58:47;13.70;99.90
13610;DHT22;6876;50.788;4.940;2022-09-20T18:01:37;13.60;99.90
13610;DHT22;6876;50.788;4.940;2022-09-20T18:04:26;13.50;99.90
13610;DHT22;6876;50.788;4.940;2022-09-20T18:07:18;13.40;99.90
13610;DHT22;6876;50.788;4.940;2022-09-20T18:10:06;13.30;99.90
13610;DHT22;6876;50.788;4.940;2022-09-20T18:12:56;13.30;99.90
13610;DHT22;6876;50.788;4.940;2022-09-20T18:15:45;13.20;99.90
13610;DHT22;6876;50.788;4.940;2022-09-20T18:18:34;13.20;99.90
13610;DHT22;6876;50.788;4.940;2022-09-20T18:21:25;13.30;99.90
13610;DHT22;6876;50.788;4.940;2022-09-20T18:24:16;13.30;99.90
13610;DHT22;6876;50.788;4.940;2022-09-20T18:27:04;13.40;99.90
13610;DHT22;6876;50.788;4.940;2022-09-20T18:29:53;13.40;99.90
13610;DHT22;6876;50.788;4.940;2022-09-20T18:32:40;13.40;99.90
13610;DHT22;6876;50.788;4.940;2022-09-20T18:35:29;13.40;99.90
13610;DHT22;6876;50.788;4.940;2022-09-20T18:38:16;13.50;99.90
13610;DHT22;6876;50.788;4.940;2022-09-20T18:41:05;13.50;99.90
13610;DHT22;6876;50.788;4.940;2022-09-20T18:43:53;13.50;99.90
13610;DHT22;6876;50.788;4.940;2022-09-20T18:46:41;13.50;99.90
13610;DHT22;6876;50.788;4.940;2022-09-20T18:49:28;13.60;99.90
13610;DHT22;6876;50.788;4.940;2022-09-20T18:52:16;13.70;99.90
13610;DHT22;6876;50.788;4.940;2022-09-20T18:55:10;13.60;99.90
13610;DHT22;6876;50.788;4.940;2022-09-20T18:57:59;13.70;99.90
13610;DHT22;6876;50.788;4.940;2022-09-20T19:00:54;13.70;99.90
13610;DHT22;6876;50.788;4.940;2022-09-20T19:03:54;13.60;99.90
13610;DHT22;6876;50.788;4.940;2022-09-20T19:06:59;13.60;99.90
13610;DHT22;6876;50.788;4.940;2022-09-20T19:09:54;13.60;99.90
13610;DHT22;6876;50.788;4.940;2022-09-20T19:12:47;13.70;99.90
13610;DHT22;6876;50.788;4.940;2022-09-20T19:15:47;13.70;99.90
13610;DHT22;6876;50.788;4.940;2022-09-20T19:21:56;13.70;99.90